sensor_id;sensor_type;location;lat;lon;timestamp;P1;durP1;ratioP1;P2;durP2;ratioP2
40995;SDS011;26723;57.478;12.066;2022-08-18T00:00:10;5.50;;;5.10;;
40995;SDS011;26723;57.478;12.066;2022-08-18T00:03:26;5.97;;;5.47;;
40995;SDS011;26723;57.478;12.066;2022-08-18T00:06:56;5.70;;;5.30;;
40995;SDS011;26723;57.478;12.066;2022-08-18T00:10:05;5.60;;;5.10;;
40995;SDS011;26723;57.478;12.066;2022-08-18T00:13:24;5.93;;;5.40;;
40995;SDS011;26723;57.478;12.066;2022-08-18T00:16:32;5.60;;;5.10;;
40995;SDS011;26723;57.478;12.066;2022-08-18T00:19:41;6.13;;;5.45;;
40995;SDS011;26723;57.478;12.066;2022-08-18T00:22:53;5.05;;;4.72;;
40995;SDS011;26723;57.478;12.066;2022-08-18T00:26:03;5.80;;;5.40;;
40995;SDS011;26723;57.478;12.066;2022-08-18T00:29:11;6.05;;;5.55;;
40995;SDS011;26723;57.478;12.066;2022-08-18T00:32:21;6.45;;;5.95;;
40995;SDS011;26723;57.478;12.066;2022-08-18T00:35:33;6.32;;;5.82;;
40995;SDS011;26723;57.478;12.066;2022-08-18T00:38:43;6.10;;;5.57;;
40995;SDS011;26723;57.478;12.066;2022-08-18T00:41:51;6.43;;;5.80;;
40995;SDS011;26723;57.478;12.066;2022-08-18T00:45:03;5.90;;;5.40;;
40995;SDS011;26723;57.478;12.066;2022-08-18T00:48:12;6.25;;;5.65;;
40995;SDS011;26723;57.478;12.066;2022-08-18T00:51:23;6.03;;;5.53;;
40995;SDS011;26723;57.478;12.066;2022-08-18T00:54:33;5.75;;;5.35;;
40995;SDS011;26723;57.478;12.066;2022-08-18T00:57:45;6.05;;;5.43;;
40995;SDS011;26723;57.478;12.066;2022-08-18T01:00:57;6.00;;;5.50;;
40995;SDS011;26723;57.478;12.066;2022-08-18T01:04:08;6.40;;;5.80;;
40995;SDS011;26723;57.478;12.066;2022-08-18T01:07:24;6.32;;;5.90;;
40995;SDS011;26723;57.478;12.066;2022-08-18T01:10:35;5.82;;;5.40;;
40995;SDS011;26723;57.478;12.066;2022-08-18T01:13:43;6.53;;;5.93;;
40995;SDS011;26723;57.478;12.066;2022-08-18T01:16:52;5.72;;;5.32;;
40995;SDS011;26723;57.478;12.066;2022-08-18T01:20:20;6.03;;;5.40;;
40995;SDS011;26723;57.478;12.066;2022-08-18T01:23:53;5.43;;;4.93;;
40995;SDS011;26723;57.478;12.066;2022-08-18T01:27:02;4.55;;;4.25;;
40995;SDS011;26723;57.478;12.066;2022-08-18T01:30:11;5.20;;;4.75;;
40995;SDS011;26723;57.478;12.066;2022-08-18T01:33:21;5.25;;;4.85;;
40995;SDS011;26723;57.478;12.066;2022-08-18T01:36:36;5.40;;;5.00;;
40995;SDS011;26723;57.478;12.066;2022-08-18T01:39:47;5.35;;;4.90;;
40995;SDS011;26723;57.478;12.066;2022-08-18T01:43:15;6.13;;;5.43;;
40995;SDS011;26723;57.478;12.066;2022-08-18T01:46:24;5.63;;;5.22;;
40995;SDS011;26723;57.478;12.066;2022-08-18T01:49:33;5.45;;;5.05;;
40995;SDS011;26723;57.478;12.066;2022-08-18T01:52:41;5.90;;;5.35;;
40995;SDS011;26723;57.478;12.066;2022-08-18T01:55:51;5.63;;;5.22;;
40995;SDS011;26723;57.478;12.066;2022-08-18T01:59:01;6.25;;;5.75;;
40995;SDS011;26723;57.478;12.066;2022-08-18T02:02:09;7.18;;;6.47;;
40995;SDS011;26723;57.478;12.066;2022-08-18T02:05:26;6.20;;;5.70;;
40995;SDS011;26723;57.478;12.066;2022-08-18T02:08:39;5.60;;;5.20;;
40995;SDS011;26723;57.478;12.066;2022-08-18T02:11:56;5.80;;;5.30;;
40995;SDS011;26723;57.478;12.066;2022-08-18T02:15:05;6.55;;;5.95;;
40995;SDS011;26723;57.478;12.066;2022-08-18T02:18:15;6.28;;;5.72;;
40995;SDS011;26723;57.478;12.066;2022-08-18T02:21:53;7.78;;;6.00;;
40995;SDS011;26723;57.478;12.066;2022-08-18T02:25:01;6.03;;;5.63;;
40995;SDS011;26723;57.478;12.066;2022-08-18T02:28:13;6.25;;;5.65;;
40995;SDS011;26723;57.478;12.066;2022-08-18T02:31:22;5.22;;;4.78;;
40995;SDS011;26723;57.478;12.066;2022-08-18T02:34:31;4.88;;;4.43;;
40995;SDS011;26723;57.478;12.066;2022-08-18T02:37:39;5.07;;;4.68;;
40995;SDS011;26723;57.478;12.066;2022-08-18T02:40:52;5.28;;;4.95;;
40995;SDS011;26723;57.478;12.066;2022-08-18T02:44:04;4.88;;;4.47;;
40995;SDS011;26723;57.478;12.066;2022-08-18T02:47:13;5.20;;;4.72;;
40995;SDS011;26723;57.478;12.066;2022-08-18T02:50:21;5.18;;;4.78;;
40995;SDS011;26723;57.478;12.066;2022-08-18T02:53:30;5.65;;;5.20;;
40995;SDS011;26723;57.478;12.066;2022-08-18T02:56:39;6.25;;;5.85;;
40995;SDS011;26723;57.478;12.066;2022-08-18T02:59:49;6.35;;;5.75;;
40995;SDS011;26723;57.478;12.066;2022-08-18T03:02:57;6.18;;;5.68;;
40995;SDS011;26723;57.478;12.066;2022-08-18T03:06:05;6.90;;;6.20;;
40995;SDS011;26723;57.478;12.066;2022-08-18T03:09:14;6.93;;;6.32;;
40995;SDS011;26723;57.478;12.066;2022-08-18T03:12:23;7.25;;;6.65;;
40995;SDS011;26723;57.478;12.066;2022-08-18T03:15:33;6.72;;;6.13;;
40995;SDS011;26723;57.478;12.066;2022-08-18T03:18:41;7.03;;;6.32;;
40995;SDS011;26723;57.478;12.066;2022-08-18T03:21:50;6.70;;;6.03;;
40995;SDS011;26723;57.478;12.066;2022-08-18T03:25:03;7.18;;;6.25;;
40995;SDS011;26723;57.478;12.066;2022-08-18T03:28:12;7.25;;;6.05;;
40995;SDS011;26723;57.478;12.066;2022-08-18T03:31:22;7.28;;;6.68;;
40995;SDS011;26723;57.478;12.066;2022-08-18T03:34:33;10.48;;;7.47;;
40995;SDS011;26723;57.478;12.066;2022-08-18T03:37:42;10.48;;;7.95;;
40995;SDS011;26723;57.478;12.066;2022-08-18T03:40:50;9.55;;;7.93;;
40995;SDS011;26723;57.478;12.066;2022-08-18T03:43:59;11.93;;;8.13;;
40995;SDS011;26723;57.478;12.066;2022-08-18T03:47:09;11.23;;;8.57;;
40995;SDS011;26723;57.478;12.066;2022-08-18T03:50:18;10.38;;;8.00;;
40995;SDS011;26723;57.478;12.066;2022-08-18T03:53:27;11.30;;;7.93;;
40995;SDS011;26723;57.478;12.066;2022-08-18T03:56:36;11.30;;;8.27;;
40995;SDS011;26723;57.478;12.066;2022-08-18T03:59:45;12.77;;;8.43;;
40995;SDS011;26723;57.478;12.066;2022-08-18T04:02:55;13.45;;;8.35;;
40995;SDS011;26723;57.478;12.066;2022-08-18T04:06:05;15.93;;;9.10;;
40995;SDS011;26723;57.478;12.066;2022-08-18T04:09:18;12.35;;;8.13;;
40995;SDS011;26723;57.478;12.066;2022-08-18T04:12:27;13.48;;;8.65;;
40995;SDS011;26723;57.478;12.066;2022-08-18T04:15:36;15.27;;;9.07;;
40995;SDS011;26723;57.478;12.066;2022-08-18T04:18:45;18.35;;;10.07;;
40995;SDS011;26723;57.478;12.066;2022-08-18T04:21:54;15.85;;;9.10;;
40995;SDS011;26723;57.478;12.066;2022-08-18T04:25:04;13.93;;;9.00;;
40995;SDS011;26723;57.478;12.066;2022-08-18T04:28:14;12.23;;;8.82;;
40995;SDS011;26723;57.478;12.066;2022-08-18T04:31:22;14.95;;;9.25;;
40995;SDS011;26723;57.478;12.066;2022-08-18T04:34:33;14.60;;;8.65;;
40995;SDS011;26723;57.478;12.066;2022-08-18T04:37:41;14.60;;;8.40;;
40995;SDS011;26723;57.478;12.066;2022-08-18T04:40:50;15.07;;;9.43;;
40995;SDS011;26723;57.478;12.066;2022-08-18T04:43:59;15.45;;;9.30;;
40995;SDS011;26723;57.478;12.066;2022-08-18T04:47:09;16.38;;;9.50;;
40995;SDS011;26723;57.478;12.066;2022-08-18T04:50:20;14.93;;;9.27;;
40995;SDS011;26723;57.478;12.066;2022-08-18T04:53:35;14.18;;;8.70;;
40995;SDS011;26723;57.478;12.066;2022-08-18T04:56:53;13.65;;;8.35;;
40995;SDS011;26723;57.478;12.066;2022-08-18T05:00:03;16.15;;;8.57;;
40995;SDS011;26723;57.478;12.066;2022-08-18T05:03:12;11.32;;;8.23;;
40995;SDS011;26723;57.478;12.066;2022-08-18T05:06:22;10.18;;;8.02;;
40995;SDS011;26723;57.478;12.066;2022-08-18T05:09:32;12.15;;;8.20;;
40995;SDS011;26723;57.478;12.066;2022-08-18T05:12:47;9.98;;;7.93;;
40995;SDS011;26723;57.478;12.066;2022-08-18T05:15:55;8.57;;;7.07;;
40995;SDS011;26723;57.478;12.066;2022-08-18T05:19:23;9.10;;;7.05;;
40995;SDS011;26723;57.478;12.066;2022-08-18T05:22:36;8.30;;;7.13;;
40995;SDS011;26723;57.478;12.066;2022-08-18T05:25:46;9.43;;;7.00;;
40995;SDS011;26723;57.478;12.066;2022-08-18T05:28:58;10.05;;;7.57;;
40995;SDS011;26723;57.478;12.066;2022-08-18T05:32:23;9.32;;;7.20;;
40995;SDS011;26723;57.478;12.066;2022-08-18T05:35:40;11.02;;;7.13;;
40995;SDS011;26723;57.478;12.066;2022-08-18T05:38:53;9.60;;;7.38;;
40995;SDS011;26723;57.478;12.066;2022-08-18T05:42:10;10.48;;;7.53;;
40995;SDS011;26723;57.478;12.066;2022-08-18T05:45:23;11.50;;;7.30;;
40995;SDS011;26723;57.478;12.066;2022-08-18T05:48:32;9.05;;;7.10;;
40995;SDS011;26723;57.478;12.066;2022-08-18T05:51:49;7.32;;;6.60;;
40995;SDS011;26723;57.478;12.066;2022-08-18T05:55:02;8.23;;;7.05;;
40995;SDS011;26723;57.478;12.066;2022-08-18T05:58:31;9.38;;;6.93;;
40995;SDS011;26723;57.478;12.066;2022-08-18T06:01:44;8.10;;;6.70;;
40995;SDS011;26723;57.478;12.066;2022-08-18T06:04:59;8.10;;;6.80;;
40995;SDS011;26723;57.478;12.066;2022-08-18T06:08:12;6.55;;;5.97;;
40995;SDS011;26723;57.478;12.066;2022-08-18T06:11:22;7.35;;;6.65;;
40995;SDS011;26723;57.478;12.066;2022-08-18T06:14:31;8.10;;;7.22;;
40995;SDS011;26723;57.478;12.066;2022-08-18T06:21:32;7.00;;;6.35;;
40995;SDS011;26723;57.478;12.066;2022-08-18T06:24:47;6.85;;;6.15;;
40995;SDS011;26723;57.478;12.066;2022-08-18T06:28:02;7.20;;;6.50;;
40995;SDS011;26723;57.478;12.066;2022-08-18T06:31:16;7.45;;;6.75;;
40995;SDS011;26723;57.478;12.066;2022-08-18T06:38:12;6.53;;;5.93;;
40995;SDS011;26723;57.478;12.066;2022-08-18T06:41:51;6.55;;;5.95;;
40995;SDS011;26723;57.478;12.066;2022-08-18T06:45:02;6.30;;;5.70;;
40995;SDS011;26723;57.478;12.066;2022-08-18T06:48:19;7.07;;;6.22;;
40995;SDS011;26723;57.478;12.066;2022-08-18T06:51:33;6.65;;;6.05;;
40995;SDS011;26723;57.478;12.066;2022-08-18T06:54:46;6.45;;;5.78;;
40995;SDS011;26723;57.478;12.066;2022-08-18T06:57:57;7.43;;;6.75;;
40995;SDS011;26723;57.478;12.066;2022-08-18T07:01:08;6.55;;;5.95;;
40995;SDS011;26723;57.478;12.066;2022-08-18T07:08:09;10.23;;;8.20;;
40995;SDS011;26723;57.478;12.066;2022-08-18T07:11:24;8.60;;;7.70;;
40995;SDS011;26723;57.478;12.066;2022-08-18T07:14:41;9.13;;;8.05;;
40995;SDS011;26723;57.478;12.066;2022-08-18T07:17:52;9.50;;;7.45;;
40995;SDS011;26723;57.478;12.066;2022-08-18T07:21:22;7.65;;;6.88;;
40995;SDS011;26723;57.478;12.066;2022-08-18T07:24:35;7.45;;;6.80;;
40995;SDS011;26723;57.478;12.066;2022-08-18T07:27:47;7.57;;;6.72;;
40995;SDS011;26723;57.478;12.066;2022-08-18T07:34:42;6.55;;;6.03;;
40995;SDS011;26723;57.478;12.066;2022-08-18T07:37:59;6.15;;;5.65;;
40995;SDS011;26723;57.478;12.066;2022-08-18T07:41:32;5.70;;;5.28;;
40995;SDS011;26723;57.478;12.066;2022-08-18T07:44:48;7.00;;;6.40;;
40995;SDS011;26723;57.478;12.066;2022-08-18T07:48:03;6.20;;;5.70;;
40995;SDS011;26723;57.478;12.066;2022-08-18T07:51:42;6.75;;;6.25;;
40995;SDS011;26723;57.478;12.066;2022-08-18T07:55:01;6.80;;;6.20;;
40995;SDS011;26723;57.478;12.066;2022-08-18T07:58:17;6.88;;;6.28;;
40995;SDS011;26723;57.478;12.066;2022-08-18T08:01:32;6.90;;;6.30;;
40995;SDS011;26723;57.478;12.066;2022-08-18T08:04:49;6.32;;;5.82;;
40995;SDS011;26723;57.478;12.066;2022-08-18T08:08:07;6.50;;;6.00;;
40995;SDS011;26723;57.478;12.066;2022-08-18T08:11:34;5.43;;;5.07;;
40995;SDS011;26723;57.478;12.066;2022-08-18T08:14:52;5.25;;;4.85;;
40995;SDS011;26723;57.478;12.066;2022-08-18T08:18:08;4.80;;;4.50;;
40995;SDS011;26723;57.478;12.066;2022-08-18T08:21:23;4.50;;;4.20;;
40995;SDS011;26723;57.478;12.066;2022-08-18T08:24:40;4.50;;;4.20;;
40995;SDS011;26723;57.478;12.066;2022-08-18T08:28:02;4.90;;;4.57;;
40995;SDS011;26723;57.478;12.066;2022-08-18T14:12:33;4.30;;;4.00;;
40995;SDS011;26723;57.478;12.066;2022-08-18T14:15:45;4.05;;;3.85;;
40995;SDS011;26723;57.478;12.066;2022-08-18T14:18:59;4.20;;;4.00;;
40995;SDS011;26723;57.478;12.066;2022-08-18T14:22:28;4.07;;;3.88;;
40995;SDS011;26723;57.478;12.066;2022-08-18T14:25:54;4.35;;;4.15;;
40995;SDS011;26723;57.478;12.066;2022-08-18T14:29:24;4.60;;;4.30;;
40995;SDS011;26723;57.478;12.066;2022-08-18T14:32:52;4.25;;;4.00;;
40995;SDS011;26723;57.478;12.066;2022-08-18T14:36:03;4.38;;;4.15;;
40995;SDS011;26723;57.478;12.066;2022-08-18T14:39:15;4.50;;;4.25;;
40995;SDS011;26723;57.478;12.066;2022-08-18T14:42:23;4.63;;;4.32;;
40995;SDS011;26723;57.478;12.066;2022-08-18T14:45:53;5.75;;;5.30;;
40995;SDS011;26723;57.478;12.066;2022-08-18T14:49:03;6.63;;;6.13;;
40995;SDS011;26723;57.478;12.066;2022-08-18T14:52:12;10.85;;;9.43;;
40995;SDS011;26723;57.478;12.066;2022-08-18T14:55:20;11.25;;;8.45;;
40995;SDS011;26723;57.478;12.066;2022-08-18T14:58:30;6.55;;;5.95;;
40995;SDS011;26723;57.478;12.066;2022-08-18T15:01:40;4.72;;;4.53;;
40995;SDS011;26723;57.478;12.066;2022-08-18T15:04:52;6.60;;;6.00;;
40995;SDS011;26723;57.478;12.066;2022-08-18T15:08:03;6.30;;;5.90;;
40995;SDS011;26723;57.478;12.066;2022-08-18T15:11:12;5.47;;;5.07;;
40995;SDS011;26723;57.478;12.066;2022-08-18T15:14:21;4.88;;;4.57;;
40995;SDS011;26723;57.478;12.066;2022-08-18T15:17:40;4.75;;;4.45;;
40995;SDS011;26723;57.478;12.066;2022-08-18T15:20:48;4.53;;;4.22;;
40995;SDS011;26723;57.478;12.066;2022-08-18T15:24:24;5.00;;;4.65;;
40995;SDS011;26723;57.478;12.066;2022-08-18T15:27:52;4.68;;;4.38;;
40995;SDS011;26723;57.478;12.066;2022-08-18T15:31:01;5.05;;;4.60;;
40995;SDS011;26723;57.478;12.066;2022-08-18T15:34:30;4.68;;;4.40;;
40995;SDS011;26723;57.478;12.066;2022-08-18T15:37:56;4.68;;;4.38;;
40995;SDS011;26723;57.478;12.066;2022-08-18T15:41:10;4.80;;;4.50;;
40995;SDS011;26723;57.478;12.066;2022-08-18T15:44:36;4.72;;;4.43;;
40995;SDS011;26723;57.478;12.066;2022-08-18T15:47:45;4.78;;;4.47;;
40995;SDS011;26723;57.478;12.066;2022-08-18T15:50:55;4.50;;;4.28;;
40995;SDS011;26723;57.478;12.066;2022-08-18T15:54:17;4.80;;;4.50;;
40995;SDS011;26723;57.478;12.066;2022-08-18T15:57:26;4.72;;;4.38;;
40995;SDS011;26723;57.478;12.066;2022-08-18T16:00:45;4.85;;;4.55;;
40995;SDS011;26723;57.478;12.066;2022-08-18T16:03:55;4.20;;;3.95;;
40995;SDS011;26723;57.478;12.066;2022-08-18T16:07:06;4.90;;;4.60;;
40995;SDS011;26723;57.478;12.066;2022-08-18T16:10:15;4.70;;;4.40;;
40995;SDS011;26723;57.478;12.066;2022-08-18T16:13:25;4.53;;;4.22;;
40995;SDS011;26723;57.478;12.066;2022-08-18T16:16:34;4.22;;;4.03;;
40995;SDS011;26723;57.478;12.066;2022-08-18T16:19:43;4.38;;;4.07;;
40995;SDS011;26723;57.478;12.066;2022-08-18T16:22:53;4.07;;;3.85;;
40995;SDS011;26723;57.478;12.066;2022-08-18T16:26:03;6.20;;;5.70;;
40995;SDS011;26723;57.478;12.066;2022-08-18T16:29:12;5.50;;;5.10;;
40995;SDS011;26723;57.478;12.066;2022-08-18T16:32:20;5.10;;;4.80;;
40995;SDS011;26723;57.478;12.066;2022-08-18T16:35:28;5.28;;;4.97;;
40995;SDS011;26723;57.478;12.066;2022-08-18T16:38:39;4.97;;;4.57;;
40995;SDS011;26723;57.478;12.066;2022-08-18T16:41:52;5.07;;;4.78;;
40995;SDS011;26723;57.478;12.066;2022-08-18T16:45:02;4.95;;;4.60;;
40995;SDS011;26723;57.478;12.066;2022-08-18T16:48:11;4.22;;;3.97;;
40995;SDS011;26723;57.478;12.066;2022-08-18T16:51:23;4.30;;;4.10;;
40995;SDS011;26723;57.478;12.066;2022-08-18T16:54:33;4.25;;;3.97;;
40995;SDS011;26723;57.478;12.066;2022-08-18T16:57:42;4.10;;;3.90;;
40995;SDS011;26723;57.478;12.066;2022-08-18T17:01:08;4.65;;;4.35;;
40995;SDS011;26723;57.478;12.066;2022-08-18T17:04:54;4.90;;;4.50;;
40995;SDS011;26723;57.478;12.066;2022-08-18T17:08:07;4.18;;;3.88;;
40995;SDS011;26723;57.478;12.066;2022-08-18T17:11:17;4.22;;;3.92;;
40995;SDS011;26723;57.478;12.066;2022-08-18T17:14:26;3.88;;;3.67;;
40995;SDS011;26723;57.478;12.066;2022-08-18T17:17:36;4.22;;;4.00;;
40995;SDS011;26723;57.478;12.066;2022-08-18T17:20:44;4.25;;;3.95;;
40995;SDS011;26723;57.478;12.066;2022-08-18T17:23:53;4.20;;;4.00;;
40995;SDS011;26723;57.478;12.066;2022-08-18T17:27:08;4.22;;;3.92;;
40995;SDS011;26723;57.478;12.066;2022-08-18T17:30:35;4.30;;;4.03;;
40995;SDS011;26723;57.478;12.066;2022-08-18T17:33:48;4.05;;;3.85;;
40995;SDS011;26723;57.478;12.066;2022-08-18T17:37:00;4.50;;;4.10;;
40995;SDS011;26723;57.478;12.066;2022-08-18T17:40:17;4.22;;;3.85;;
40995;SDS011;26723;57.478;12.066;2022-08-18T17:43:35;4.07;;;3.85;;
40995;SDS011;26723;57.478;12.066;2022-08-18T17:46:50;4.30;;;4.00;;
40995;SDS011;26723;57.478;12.066;2022-08-18T17:50:05;4.22;;;4.03;;
40995;SDS011;26723;57.478;12.066;2022-08-18T17:53:37;4.28;;;3.97;;
40995;SDS011;26723;57.478;12.066;2022-08-18T17:56:49;3.90;;;3.70;;
40995;SDS011;26723;57.478;12.066;2022-08-18T18:00:04;3.58;;;3.38;;
40995;SDS011;26723;57.478;12.066;2022-08-18T18:03:16;4.20;;;3.90;;
40995;SDS011;26723;57.478;12.066;2022-08-18T18:06:28;3.85;;;3.65;;
40995;SDS011;26723;57.478;12.066;2022-08-18T18:09:43;4.05;;;3.80;;
40995;SDS011;26723;57.478;12.066;2022-08-18T18:13:04;3.90;;;3.65;;
40995;SDS011;26723;57.478;12.066;2022-08-18T18:16:23;4.07;;;3.78;;
40995;SDS011;26723;57.478;12.066;2022-08-18T18:19:35;4.03;;;3.83;;
40995;SDS011;26723;57.478;12.066;2022-08-18T18:22:43;3.97;;;3.75;;
40995;SDS011;26723;57.478;12.066;2022-08-18T18:25:52;3.63;;;3.42;;
40995;SDS011;26723;57.478;12.066;2022-08-18T18:29:11;3.90;;;3.65;;
40995;SDS011;26723;57.478;12.066;2022-08-18T18:32:28;4.20;;;3.90;;
40995;SDS011;26723;57.478;12.066;2022-08-18T18:35:47;4.05;;;3.63;;
40995;SDS011;26723;57.478;12.066;2022-08-18T18:39:05;4.10;;;3.80;;
40995;SDS011;26723;57.478;12.066;2022-08-18T18:43:19;3.90;;;3.60;;
40995;SDS011;26723;57.478;12.066;2022-08-18T18:46:41;4.40;;;4.00;;
40995;SDS011;26723;57.478;12.066;2022-08-18T18:49:56;4.10;;;3.80;;
40995;SDS011;26723;57.478;12.066;2022-08-18T18:53:13;4.30;;;4.00;;
40995;SDS011;26723;57.478;12.066;2022-08-18T18:56:32;4.43;;;4.13;;
40995;SDS011;26723;57.478;12.066;2022-08-18T18:59:49;3.90;;;3.60;;
40995;SDS011;26723;57.478;12.066;2022-08-18T19:03:05;4.35;;;3.95;;
40995;SDS011;26723;57.478;12.066;2022-08-18T19:06:20;4.35;;;3.75;;
40995;SDS011;26723;57.478;12.066;2022-08-18T19:09:36;4.18;;;3.78;;
40995;SDS011;26723;57.478;12.066;2022-08-18T19:12:57;3.80;;;3.60;;
40995;SDS011;26723;57.478;12.066;2022-08-18T19:16:29;4.20;;;3.90;;
40995;SDS011;26723;57.478;12.066;2022-08-18T19:19:41;4.22;;;3.92;;
40995;SDS011;26723;57.478;12.066;2022-08-18T19:22:57;3.78;;;3.47;;
40995;SDS011;26723;57.478;12.066;2022-08-18T19:26:13;3.70;;;3.50;;
40995;SDS011;26723;57.478;12.066;2022-08-18T19:29:33;4.10;;;3.80;;
40995;SDS011;26723;57.478;12.066;2022-08-18T19:32:47;4.15;;;3.85;;
40995;SDS011;26723;57.478;12.066;2022-08-18T19:36:00;4.38;;;4.05;;
40995;SDS011;26723;57.478;12.066;2022-08-18T19:39:29;4.13;;;3.90;;
40995;SDS011;26723;57.478;12.066;2022-08-18T19:42:44;4.07;;;3.78;;
40995;SDS011;26723;57.478;12.066;2022-08-18T19:46:00;4.05;;;3.75;;
40995;SDS011;26723;57.478;12.066;2022-08-18T19:49:18;3.83;;;3.60;;
40995;SDS011;26723;57.478;12.066;2022-08-18T19:52:36;3.70;;;3.40;;
40995;SDS011;26723;57.478;12.066;2022-08-18T19:56:02;4.10;;;3.80;;
40995;SDS011;26723;57.478;12.066;2022-08-18T19:59:34;4.25;;;3.88;;
40995;SDS011;26723;57.478;12.066;2022-08-18T20:03:01;3.80;;;3.50;;
40995;SDS011;26723;57.478;12.066;2022-08-18T20:06:32;4.20;;;3.90;;
40995;SDS011;26723;57.478;12.066;2022-08-18T20:10:11;3.92;;;3.72;;
40995;SDS011;26723;57.478;12.066;2022-08-18T20:13:35;4.05;;;3.60;;
40995;SDS011;26723;57.478;12.066;2022-08-18T20:17:10;4.00;;;3.70;;
40995;SDS011;26723;57.478;12.066;2022-08-18T20:20:24;3.78;;;3.58;;
40995;SDS011;26723;57.478;12.066;2022-08-18T20:23:34;3.42;;;3.20;;
40995;SDS011;26723;57.478;12.066;2022-08-18T20:27:13;3.72;;;3.53;;
40995;SDS011;26723;57.478;12.066;2022-08-18T20:30:52;3.63;;;3.33;;
40995;SDS011;26723;57.478;12.066;2022-08-18T20:34:11;3.90;;;3.60;;
40995;SDS011;26723;57.478;12.066;2022-08-18T20:37:20;3.28;;;3.08;;
40995;SDS011;26723;57.478;12.066;2022-08-18T20:40:36;3.47;;;3.10;;
40995;SDS011;26723;57.478;12.066;2022-08-18T20:43:49;3.40;;;3.10;;
40995;SDS011;26723;57.478;12.066;2022-08-18T20:47:05;3.80;;;3.35;;
40995;SDS011;26723;57.478;12.066;2022-08-18T20:54:05;3.50;;;3.20;;
40995;SDS011;26723;57.478;12.066;2022-08-18T20:57:25;3.33;;;3.00;;
40995;SDS011;26723;57.478;12.066;2022-08-18T21:00:40;3.00;;;2.80;;
40995;SDS011;26723;57.478;12.066;2022-08-18T21:03:53;3.20;;;3.00;;
40995;SDS011;26723;57.478;12.066;2022-08-18T21:07:13;3.20;;;3.00;;
40995;SDS011;26723;57.478;12.066;2022-08-18T21:10:46;3.13;;;2.90;;
40995;SDS011;26723;57.478;12.066;2022-08-18T21:13:57;3.25;;;2.95;;
40995;SDS011;26723;57.478;12.066;2022-08-18T21:17:11;3.03;;;2.83;;
40995;SDS011;26723;57.478;12.066;2022-08-18T21:20:22;3.60;;;2.90;;
40995;SDS011;26723;57.478;12.066;2022-08-18T21:23:32;3.10;;;2.60;;
40995;SDS011;26723;57.478;12.066;2022-08-18T21:26:44;3.20;;;2.90;;
40995;SDS011;26723;57.478;12.066;2022-08-18T21:29:53;3.03;;;2.42;;
40995;SDS011;26723;57.478;12.066;2022-08-18T21:33:16;3.30;;;3.00;;
40995;SDS011;26723;57.478;12.066;2022-08-18T21:36:27;3.25;;;2.95;;
40995;SDS011;26723;57.478;12.066;2022-08-18T21:39:45;3.47;;;3.00;;
40995;SDS011;26723;57.478;12.066;2022-08-18T21:42:56;3.28;;;2.75;;
40995;SDS011;26723;57.478;12.066;2022-08-18T21:46:04;3.65;;;2.80;;
40995;SDS011;26723;57.478;12.066;2022-08-18T21:49:22;3.63;;;3.20;;
40995;SDS011;26723;57.478;12.066;2022-08-18T21:52:33;2.83;;;2.63;;
40995;SDS011;26723;57.478;12.066;2022-08-18T21:55:43;3.33;;;3.13;;
40995;SDS011;26723;57.478;12.066;2022-08-18T21:59:03;3.10;;;2.90;;
40995;SDS011;26723;57.478;12.066;2022-08-18T22:02:18;3.35;;;3.10;;
40995;SDS011;26723;57.478;12.066;2022-08-18T22:05:27;3.17;;;2.85;;
40995;SDS011;26723;57.478;12.066;2022-08-18T22:08:59;3.13;;;2.72;;
40995;SDS011;26723;57.478;12.066;2022-08-18T22:12:31;3.60;;;3.30;;
40995;SDS011;26723;57.478;12.066;2022-08-18T22:15:57;2.90;;;2.70;;
40995;SDS011;26723;57.478;12.066;2022-08-18T22:19:07;3.45;;;3.00;;
40995;SDS011;26723;57.478;12.066;2022-08-18T22:22:18;3.17;;;2.88;;
40995;SDS011;26723;57.478;12.066;2022-08-18T22:25:47;3.15;;;2.95;;
40995;SDS011;26723;57.478;12.066;2022-08-18T22:28:57;3.30;;;3.10;;
40995;SDS011;26723;57.478;12.066;2022-08-18T22:32:07;3.25;;;3.05;;
40995;SDS011;26723;57.478;12.066;2022-08-18T22:35:15;3.85;;;3.30;;
40995;SDS011;26723;57.478;12.066;2022-08-18T22:38:24;3.55;;;3.25;;
40995;SDS011;26723;57.478;12.066;2022-08-18T22:41:35;3.30;;;3.00;;
40995;SDS011;26723;57.478;12.066;2022-08-18T22:44:44;3.53;;;3.20;;
40995;SDS011;26723;57.478;12.066;2022-08-18T22:47:52;3.35;;;3.13;;
40995;SDS011;26723;57.478;12.066;2022-08-18T22:51:02;4.90;;;3.40;;
40995;SDS011;26723;57.478;12.066;2022-08-18T22:54:11;4.47;;;4.07;;
40995;SDS011;26723;57.478;12.066;2022-08-18T22:57:21;4.85;;;3.70;;
40995;SDS011;26723;57.478;12.066;2022-08-18T23:00:29;3.80;;;3.53;;
40995;SDS011;26723;57.478;12.066;2022-08-18T23:03:40;3.90;;;3.60;;
40995;SDS011;26723;57.478;12.066;2022-08-18T23:06:48;4.03;;;3.63;;
40995;SDS011;26723;57.478;12.066;2022-08-18T23:09:58;4.45;;;3.95;;
40995;SDS011;26723;57.478;12.066;2022-08-18T23:13:07;3.95;;;3.53;;
40995;SDS011;26723;57.478;12.066;2022-08-18T23:16:16;4.18;;;3.83;;
40995;SDS011;26723;57.478;12.066;2022-08-18T23:19:37;4.10;;;3.70;;
40995;SDS011;26723;57.478;12.066;2022-08-18T23:22:46;4.00;;;3.70;;
40995;SDS011;26723;57.478;12.066;2022-08-18T23:25:54;4.22;;;3.80;;
40995;SDS011;26723;57.478;12.066;2022-08-18T23:29:04;4.15;;;3.50;;
40995;SDS011;26723;57.478;12.066;2022-08-18T23:32:16;3.42;;;3.22;;
40995;SDS011;26723;57.478;12.066;2022-08-18T23:35:24;4.30;;;3.47;;
40995;SDS011;26723;57.478;12.066;2022-08-18T23:38:32;3.95;;;3.60;;
40995;SDS011;26723;57.478;12.066;2022-08-18T23:41:43;4.80;;;4.18;;
40995;SDS011;26723;57.478;12.066;2022-08-18T23:44:52;4.22;;;3.92;;
40995;SDS011;26723;57.478;12.066;2022-08-18T23:48:04;4.28;;;3.55;;
40995;SDS011;26723;57.478;12.066;2022-08-18T23:51:12;4.63;;;4.15;;
40995;SDS011;26723;57.478;12.066;2022-08-18T23:54:34;4.60;;;3.80;;
40995;SDS011;26723;57.478;12.066;2022-08-18T23:57:42;3.95;;;3.65;;
